sensor_id;sensor_type;location;lat;lon;timestamp;noise_LAeq;noise_LA_min;noise_LA_max;noise_LA01;noise_LA95
72736;Laerm;60856;53.238;10.448;2023-11-19T07:07:44;46.59;45.31;49.73;;
72736;Laerm;60856;53.238;10.448;2023-11-19T07:10:11;46.57;45.25;49.58;;
72736;Laerm;60856;53.238;10.448;2023-11-19T07:12:36;46.60;45.32;49.76;;
72736;Laerm;60856;53.238;10.448;2023-11-19T07:15:02;46.61;45.36;49.85;;
72736;Laerm;60856;53.238;10.448;2023-11-19T07:17:29;46.59;45.15;49.93;;
72736;Laerm;60856;53.238;10.448;2023-11-19T07:19:54;46.60;45.31;49.69;;
72736;Laerm;60856;53.238;10.448;2023-11-19T07:22:19;46.61;45.12;49.54;;
72736;Laerm;60856;53.238;10.448;2023-11-19T07:24:45;46.60;45.28;49.98;;
72736;Laerm;60856;53.238;10.448;2023-11-19T07:27:10;46.58;45.12;49.72;;
72736;Laerm;60856;53.238;10.448;2023-11-19T07:29:35;46.60;45.29;49.72;;
72736;Laerm;60856;53.238;10.448;2023-11-19T07:32:01;46.59;45.19;49.85;;
72736;Laerm;60856;53.238;10.448;2023-11-19T07:34:30;46.58;45.34;50.23;;
72736;Laerm;60856;53.238;10.448;2023-11-19T07:36:55;46.59;45.40;49.72;;
72736;Laerm;60856;53.238;10.448;2023-11-19T07:39:24;46.59;45.33;49.71;;
72736;Laerm;60856;53.238;10.448;2023-11-19T07:41:49;46.61;45.14;49.68;;
72736;Laerm;60856;53.238;10.448;2023-11-19T07:44:14;46.59;45.15;49.83;;
72736;Laerm;60856;53.238;10.448;2023-11-19T07:46:40;46.63;45.31;49.75;;
72736;Laerm;60856;53.238;10.448;2023-11-19T07:49:07;46.62;45.27;49.51;;
72736;Laerm;60856;53.238;10.448;2023-11-19T07:51:32;46.63;45.40;50.21;;
72736;Laerm;60856;53.238;10.448;2023-11-19T07:53:58;46.63;45.28;49.74;;
72736;Laerm;60856;53.238;10.448;2023-11-19T07:56:23;46.64;45.36;49.55;;
72736;Laerm;60856;53.238;10.448;2023-11-19T07:58:48;46.56;45.25;49.96;;
72736;Laerm;60856;53.238;10.448;2023-11-19T08:01:15;46.64;45.11;49.85;;
72736;Laerm;60856;53.238;10.448;2023-11-19T08:03:40;46.65;45.49;49.65;;
72736;Laerm;60856;53.238;10.448;2023-11-19T08:06:06;46.65;45.43;49.70;;
72736;Laerm;60856;53.238;10.448;2023-11-19T08:08:32;46.63;45.32;49.73;;
72736;Laerm;60856;53.238;10.448;2023-11-19T08:10:58;46.63;45.27;50.28;;
72736;Laerm;60856;53.238;10.448;2023-11-19T08:13:24;46.62;45.41;49.25;;
72736;Laerm;60856;53.238;10.448;2023-11-19T08:15:49;46.61;45.45;49.83;;
72736;Laerm;60856;53.238;10.448;2023-11-19T08:18:15;46.60;45.19;50.27;;
72736;Laerm;60856;53.238;10.448;2023-11-19T08:20:40;46.62;45.40;49.76;;
72736;Laerm;60856;53.238;10.448;2023-11-19T08:23:06;46.62;45.39;50.01;;
72736;Laerm;60856;53.238;10.448;2023-11-19T08:25:31;46.64;45.29;49.93;;
72736;Laerm;60856;53.238;10.448;2023-11-19T08:27:58;46.64;45.33;49.64;;
72736;Laerm;60856;53.238;10.448;2023-11-19T08:30:24;46.65;45.26;50.09;;
72736;Laerm;60856;53.238;10.448;2023-11-19T08:32:49;46.68;44.99;49.77;;
72736;Laerm;60856;53.238;10.448;2023-11-19T08:35:14;46.66;45.41;50.19;;
72736;Laerm;60856;53.238;10.448;2023-11-19T08:37:41;46.69;45.49;49.84;;
72736;Laerm;60856;53.238;10.448;2023-11-19T08:40:07;46.66;45.28;49.67;;
72736;Laerm;60856;53.238;10.448;2023-11-19T08:42:32;46.67;45.33;49.91;;
72736;Laerm;60856;53.238;10.448;2023-11-19T08:45:00;46.69;45.38;50.10;;
72736;Laerm;60856;53.238;10.448;2023-11-19T08:47:25;46.71;45.41;50.29;;
72736;Laerm;60856;53.238;10.448;2023-11-19T08:49:51;46.70;45.40;49.72;;
72736;Laerm;60856;53.238;10.448;2023-11-19T08:52:17;46.68;45.26;50.09;;
72736;Laerm;60856;53.238;10.448;2023-11-19T08:54:42;46.70;45.40;50.15;;
72736;Laerm;60856;53.238;10.448;2023-11-19T08:57:07;46.70;45.14;49.64;;
72736;Laerm;60856;53.238;10.448;2023-11-19T08:59:36;46.72;45.32;50.05;;
72736;Laerm;60856;53.238;10.448;2023-11-19T09:02:04;46.69;45.12;49.78;;
72736;Laerm;60856;53.238;10.448;2023-11-19T09:04:29;46.68;45.42;49.84;;
72736;Laerm;60856;53.238;10.448;2023-11-19T09:06:54;46.70;45.43;50.26;;
72736;Laerm;60856;53.238;10.448;2023-11-19T09:09:20;46.74;45.55;50.14;;
72736;Laerm;60856;53.238;10.448;2023-11-19T09:11:45;46.73;45.43;49.64;;
72736;Laerm;60856;53.238;10.448;2023-11-19T09:14:11;46.71;45.47;50.00;;
72736;Laerm;60856;53.238;10.448;2023-11-19T09:16:36;46.71;45.51;50.23;;
72736;Laerm;60856;53.238;10.448;2023-11-19T09:19:01;46.71;45.26;50.04;;
72736;Laerm;60856;53.238;10.448;2023-11-19T09:21:27;46.71;45.38;49.83;;
72736;Laerm;60856;53.238;10.448;2023-11-19T09:23:54;46.70;45.35;49.96;;
72736;Laerm;60856;53.238;10.448;2023-11-19T09:26:19;46.70;45.36;49.95;;
72736;Laerm;60856;53.238;10.448;2023-11-19T09:28:45;46.69;45.18;50.21;;
72736;Laerm;60856;53.238;10.448;2023-11-19T09:31:16;46.68;45.43;49.16;;
72736;Laerm;60856;53.238;10.448;2023-11-19T09:33:42;46.68;45.46;49.71;;
72736;Laerm;60856;53.238;10.448;2023-11-19T09:36:07;46.67;45.39;49.58;;
72736;Laerm;60856;53.238;10.448;2023-11-19T09:38:33;46.67;45.35;49.90;;
72736;Laerm;60856;53.238;10.448;2023-11-19T09:40:58;46.67;45.37;49.71;;
72736;Laerm;60856;53.238;10.448;2023-11-19T09:43:24;46.69;45.38;49.79;;
72736;Laerm;60856;53.238;10.448;2023-11-19T09:45:53;46.68;45.37;49.71;;
72736;Laerm;60856;53.238;10.448;2023-11-19T09:48:19;46.65;45.37;49.81;;
72736;Laerm;60856;53.238;10.448;2023-11-19T09:50:45;46.66;45.46;49.89;;
72736;Laerm;60856;53.238;10.448;2023-11-19T09:53:11;46.68;45.35;49.60;;
72736;Laerm;60856;53.238;10.448;2023-11-19T09:55:37;46.70;45.34;49.85;;
72736;Laerm;60856;53.238;10.448;2023-11-19T09:58:02;46.72;45.37;50.07;;
72736;Laerm;60856;53.238;10.448;2023-11-19T10:00:28;46.73;45.40;50.75;;
72736;Laerm;60856;53.238;10.448;2023-11-19T10:02:53;46.73;45.32;49.72;;
72736;Laerm;60856;53.238;10.448;2023-11-19T10:05:19;46.72;45.20;49.93;;
72736;Laerm;60856;53.238;10.448;2023-11-19T10:07:45;46.75;45.32;50.60;;
72736;Laerm;60856;53.238;10.448;2023-11-19T10:10:11;46.75;45.14;49.94;;
72736;Laerm;60856;53.238;10.448;2023-11-19T10:12:40;46.73;45.32;49.96;;
72736;Laerm;60856;53.238;10.448;2023-11-19T10:15:05;46.70;45.34;50.21;;
72736;Laerm;60856;53.238;10.448;2023-11-19T10:17:32;46.70;45.38;49.70;;
72736;Laerm;60856;53.238;10.448;2023-11-19T10:19:57;46.69;45.34;49.63;;
72736;Laerm;60856;53.238;10.448;2023-11-19T10:22:23;46.67;45.36;49.41;;
72736;Laerm;60856;53.238;10.448;2023-11-19T10:24:49;46.70;45.28;49.67;;
72736;Laerm;60856;53.238;10.448;2023-11-19T10:27:15;46.72;45.43;49.95;;
72736;Laerm;60856;53.238;10.448;2023-11-19T10:29:40;46.77;45.45;49.63;;
72736;Laerm;60856;53.238;10.448;2023-11-19T10:32:07;46.76;45.30;49.69;;
72736;Laerm;60856;53.238;10.448;2023-11-19T10:34:32;46.71;45.44;49.94;;
72736;Laerm;60856;53.238;10.448;2023-11-19T10:36:58;46.73;45.48;49.89;;
72736;Laerm;60856;53.238;10.448;2023-11-19T10:39:23;46.76;45.50;49.81;;
72736;Laerm;60856;53.238;10.448;2023-11-19T10:41:49;46.74;45.65;50.58;;
72736;Laerm;60856;53.238;10.448;2023-11-19T10:44:33;46.75;45.32;49.89;;
72736;Laerm;60856;53.238;10.448;2023-11-19T10:47:00;46.74;45.50;49.46;;
72736;Laerm;60856;53.238;10.448;2023-11-19T10:49:26;46.76;45.44;49.74;;
72736;Laerm;60856;53.238;10.448;2023-11-19T10:51:51;46.74;45.54;50.01;;
72736;Laerm;60856;53.238;10.448;2023-11-19T10:54:18;46.76;45.48;49.87;;
72736;Laerm;60856;53.238;10.448;2023-11-19T10:56:44;46.74;45.32;49.64;;
72736;Laerm;60856;53.238;10.448;2023-11-19T10:59:09;46.74;45.57;50.09;;
72736;Laerm;60856;53.238;10.448;2023-11-19T11:01:45;46.74;45.37;49.95;;
72736;Laerm;60856;53.238;10.448;2023-11-19T11:04:23;46.71;45.43;50.60;;
72736;Laerm;60856;53.238;10.448;2023-11-19T11:06:49;46.72;45.50;49.81;;
72736;Laerm;60856;53.238;10.448;2023-11-19T11:09:15;46.76;45.58;50.03;;
72736;Laerm;60856;53.238;10.448;2023-11-19T11:11:41;46.76;45.36;49.93;;
72736;Laerm;60856;53.238;10.448;2023-11-19T11:14:12;46.72;45.50;49.89;;
72736;Laerm;60856;53.238;10.448;2023-11-19T11:16:37;46.71;45.40;49.85;;
72736;Laerm;60856;53.238;10.448;2023-11-19T11:19:07;46.72;45.44;49.99;;
72736;Laerm;60856;53.238;10.448;2023-11-19T11:21:34;46.70;45.42;49.78;;
72736;Laerm;60856;53.238;10.448;2023-11-19T11:24:23;46.66;45.14;50.12;;
72736;Laerm;60856;53.238;10.448;2023-11-19T11:29:20;46.68;45.36;49.98;;
72736;Laerm;60856;53.238;10.448;2023-11-19T11:39:11;46.71;45.15;50.27;;
72736;Laerm;60856;53.238;10.448;2023-11-19T11:41:36;46.71;45.36;49.57;;
72736;Laerm;60856;53.238;10.448;2023-11-19T11:44:01;46.69;45.44;49.87;;
72736;Laerm;60856;53.238;10.448;2023-11-19T11:49:05;46.70;45.36;49.56;;
72736;Laerm;60856;53.238;10.448;2023-11-19T11:54:08;46.66;45.33;49.79;;
72736;Laerm;60856;53.238;10.448;2023-11-19T11:56:33;46.66;45.43;49.51;;
72736;Laerm;60856;53.238;10.448;2023-11-19T11:58:59;46.69;45.49;49.91;;
72736;Laerm;60856;53.238;10.448;2023-11-19T12:01:25;46.67;45.34;49.83;;
72736;Laerm;60856;53.238;10.448;2023-11-19T12:03:55;46.70;45.50;49.98;;
72736;Laerm;60856;53.238;10.448;2023-11-19T12:06:20;46.71;44.97;49.79;;
72736;Laerm;60856;53.238;10.448;2023-11-19T12:08:46;46.73;45.35;50.23;;
72736;Laerm;60856;53.238;10.448;2023-11-19T12:11:11;46.69;45.53;49.89;;
72736;Laerm;60856;53.238;10.448;2023-11-19T12:13:53;46.68;45.23;50.00;;
72736;Laerm;60856;53.238;10.448;2023-11-19T12:16:19;46.67;45.45;49.82;;
72736;Laerm;60856;53.238;10.448;2023-11-19T12:18:44;46.68;45.45;50.09;;
72736;Laerm;60856;53.238;10.448;2023-11-19T12:21:10;46.68;45.26;49.93;;
72736;Laerm;60856;53.238;10.448;2023-11-19T12:23:35;46.67;45.27;49.63;;
72736;Laerm;60856;53.238;10.448;2023-11-19T12:26:08;46.70;45.36;50.08;;
72736;Laerm;60856;53.238;10.448;2023-11-19T12:28:56;46.69;45.43;49.60;;
72736;Laerm;60856;53.238;10.448;2023-11-19T12:31:22;46.69;45.40;49.69;;
72736;Laerm;60856;53.238;10.448;2023-11-19T12:33:47;46.67;45.36;49.55;;
72736;Laerm;60856;53.238;10.448;2023-11-19T12:36:13;46.66;45.50;49.97;;
72736;Laerm;60856;53.238;10.448;2023-11-19T12:38:38;46.69;45.27;49.90;;
72736;Laerm;60856;53.238;10.448;2023-11-19T12:41:07;46.71;45.33;50.01;;
72736;Laerm;60856;53.238;10.448;2023-11-19T12:43:35;46.74;45.36;50.38;;
72736;Laerm;60856;53.238;10.448;2023-11-19T12:46:02;46.74;45.49;50.04;;
72736;Laerm;60856;53.238;10.448;2023-11-19T12:48:27;46.70;45.22;50.07;;
72736;Laerm;60856;53.238;10.448;2023-11-19T12:50:53;46.59;45.13;49.70;;
72736;Laerm;60856;53.238;10.448;2023-11-19T12:53:19;46.60;45.30;50.48;;
72736;Laerm;60856;53.238;10.448;2023-11-19T12:55:44;46.61;45.16;49.73;;
72736;Laerm;60856;53.238;10.448;2023-11-19T12:58:09;46.59;45.32;50.38;;
72736;Laerm;60856;53.238;10.448;2023-11-19T13:00:35;46.73;45.42;49.73;;
72736;Laerm;60856;53.238;10.448;2023-11-19T13:03:00;46.74;45.47;50.60;;
72736;Laerm;60856;53.238;10.448;2023-11-19T13:08:04;46.73;45.05;49.91;;
72736;Laerm;60856;53.238;10.448;2023-11-19T13:10:30;46.75;45.32;50.26;;
72736;Laerm;60856;53.238;10.448;2023-11-19T13:12:59;46.74;45.36;49.91;;
72736;Laerm;60856;53.238;10.448;2023-11-19T13:15:25;46.74;45.40;50.09;;
72736;Laerm;60856;53.238;10.448;2023-11-19T13:17:51;46.69;45.34;49.77;;
72736;Laerm;60856;53.238;10.448;2023-11-19T13:20:16;46.72;45.42;49.79;;
72736;Laerm;60856;53.238;10.448;2023-11-19T13:22:55;46.72;45.46;49.85;;
72736;Laerm;60856;53.238;10.448;2023-11-19T13:25:20;46.58;45.29;50.68;;
72736;Laerm;60856;53.238;10.448;2023-11-19T13:27:46;46.57;45.37;49.68;;
72736;Laerm;60856;53.238;10.448;2023-11-19T13:30:11;46.58;45.34;49.85;;
72736;Laerm;60856;53.238;10.448;2023-11-19T13:32:37;46.59;45.31;50.34;;
72736;Laerm;60856;53.238;10.448;2023-11-19T13:35:04;46.60;45.27;50.29;;
72736;Laerm;60856;53.238;10.448;2023-11-19T13:37:29;46.58;45.36;49.60;;
72736;Laerm;60856;53.238;10.448;2023-11-19T13:39:54;46.59;45.24;50.47;;
72736;Laerm;60856;53.238;10.448;2023-11-19T13:42:20;46.58;45.22;49.76;;
72736;Laerm;60856;53.238;10.448;2023-11-19T13:44:45;46.69;45.41;49.78;;
72736;Laerm;60856;53.238;10.448;2023-11-19T13:47:10;46.58;45.25;49.56;;
72736;Laerm;60856;53.238;10.448;2023-11-19T13:49:36;46.59;45.28;49.65;;
72736;Laerm;60856;53.238;10.448;2023-11-19T13:52:02;46.59;45.17;49.55;;
72736;Laerm;60856;53.238;10.448;2023-11-19T13:54:27;46.68;45.36;49.43;;
72736;Laerm;60856;53.238;10.448;2023-11-19T13:56:54;46.74;45.28;49.91;;
72736;Laerm;60856;53.238;10.448;2023-11-19T13:59:20;46.72;45.47;50.30;;
72736;Laerm;60856;53.238;10.448;2023-11-19T14:01:45;46.71;45.36;49.88;;
72736;Laerm;60856;53.238;10.448;2023-11-19T14:04:11;46.72;45.41;49.84;;
72736;Laerm;60856;53.238;10.448;2023-11-19T14:06:36;46.68;45.34;49.55;;
72736;Laerm;60856;53.238;10.448;2023-11-19T14:09:01;46.75;45.28;50.36;;
72736;Laerm;60856;53.238;10.448;2023-11-19T14:11:26;46.76;45.39;49.92;;
72736;Laerm;60856;53.238;10.448;2023-11-19T14:13:52;46.71;45.37;49.76;;
72736;Laerm;60856;53.238;10.448;2023-11-19T14:16:17;46.70;45.46;49.94;;
72736;Laerm;60856;53.238;10.448;2023-11-19T14:18:43;46.69;45.37;50.34;;
72736;Laerm;60856;53.238;10.448;2023-11-19T14:21:08;46.64;45.21;49.77;;
72736;Laerm;60856;53.238;10.448;2023-11-19T14:23:34;46.63;45.30;50.04;;
72736;Laerm;60856;53.238;10.448;2023-11-19T14:25:59;46.64;45.44;50.44;;
72736;Laerm;60856;53.238;10.448;2023-11-19T14:28:24;46.64;45.37;49.75;;
72736;Laerm;60856;53.238;10.448;2023-11-19T14:30:51;46.66;45.37;50.51;;
72736;Laerm;60856;53.238;10.448;2023-11-19T14:33:21;46.67;45.31;50.00;;
72736;Laerm;60856;53.238;10.448;2023-11-19T14:35:46;46.68;45.28;50.03;;
72736;Laerm;60856;53.238;10.448;2023-11-19T14:38:13;46.70;45.30;49.95;;
72736;Laerm;60856;53.238;10.448;2023-11-19T14:40:38;46.71;45.48;49.65;;
72736;Laerm;60856;53.238;10.448;2023-11-19T14:43:04;46.73;45.52;49.97;;
72736;Laerm;60856;53.238;10.448;2023-11-19T14:45:29;46.73;45.45;50.17;;
72736;Laerm;60856;53.238;10.448;2023-11-19T14:47:54;46.63;45.25;50.27;;
72736;Laerm;60856;53.238;10.448;2023-11-19T14:50:19;46.72;45.31;50.00;;
72736;Laerm;60856;53.238;10.448;2023-11-19T14:52:45;46.76;45.46;50.19;;
72736;Laerm;60856;53.238;10.448;2023-11-19T14:55:10;46.77;45.45;49.76;;
72736;Laerm;60856;53.238;10.448;2023-11-19T14:57:36;46.76;45.52;49.46;;
72736;Laerm;60856;53.238;10.448;2023-11-19T15:00:04;46.76;45.49;49.77;;
72736;Laerm;60856;53.238;10.448;2023-11-19T15:02:37;46.75;45.45;49.99;;
72736;Laerm;60856;53.238;10.448;2023-11-19T15:05:03;46.79;45.26;50.52;;
72736;Laerm;60856;53.238;10.448;2023-11-19T15:07:28;46.78;45.30;49.87;;
72736;Laerm;60856;53.238;10.448;2023-11-19T15:09:53;46.76;45.53;49.99;;
72736;Laerm;60856;53.238;10.448;2023-11-19T15:12:18;46.77;45.35;50.05;;
72736;Laerm;60856;53.238;10.448;2023-11-19T15:14:44;46.77;45.36;50.32;;
72736;Laerm;60856;53.238;10.448;2023-11-19T15:17:09;46.78;45.36;49.91;;
72736;Laerm;60856;53.238;10.448;2023-11-19T15:19:34;46.77;45.43;49.73;;
72736;Laerm;60856;53.238;10.448;2023-11-19T15:22:00;46.78;45.64;49.97;;
72736;Laerm;60856;53.238;10.448;2023-11-19T15:24:26;46.74;45.30;49.79;;
72736;Laerm;60856;53.238;10.448;2023-11-19T15:26:51;46.73;45.42;49.90;;
72736;Laerm;60856;53.238;10.448;2023-11-19T15:29:16;46.66;45.23;49.84;;
72736;Laerm;60856;53.238;10.448;2023-11-19T15:31:41;46.57;45.28;49.81;;
72736;Laerm;60856;53.238;10.448;2023-11-19T15:34:07;46.58;45.20;49.81;;
72736;Laerm;60856;53.238;10.448;2023-11-19T15:36:32;46.59;45.26;50.36;;
72736;Laerm;60856;53.238;10.448;2023-11-19T15:38:58;46.58;45.29;50.12;;
72736;Laerm;60856;53.238;10.448;2023-11-19T15:41:24;46.59;45.19;50.00;;
72736;Laerm;60856;53.238;10.448;2023-11-19T15:43:49;46.57;45.21;49.62;;
72736;Laerm;60856;53.238;10.448;2023-11-19T15:46:14;46.58;45.24;49.45;;
72736;Laerm;60856;53.238;10.448;2023-11-19T15:48:41;46.58;45.26;49.71;;
72736;Laerm;60856;53.238;10.448;2023-11-19T15:51:06;46.59;45.19;49.98;;
72736;Laerm;60856;53.238;10.448;2023-11-19T15:53:32;46.58;45.31;50.55;;
72736;Laerm;60856;53.238;10.448;2023-11-19T15:55:57;46.57;45.39;49.36;;
72736;Laerm;60856;53.238;10.448;2023-11-19T15:58:23;46.58;45.33;49.70;;
72736;Laerm;60856;53.238;10.448;2023-11-19T16:00:48;46.56;45.31;49.73;;
72736;Laerm;60856;53.238;10.448;2023-11-19T16:03:13;46.55;45.17;49.68;;
72736;Laerm;60856;53.238;10.448;2023-11-19T16:05:39;46.57;45.22;49.84;;
72736;Laerm;60856;53.238;10.448;2023-11-19T16:08:04;46.57;45.29;49.64;;
72736;Laerm;60856;53.238;10.448;2023-11-19T16:10:30;46.59;45.29;50.00;;
72736;Laerm;60856;53.238;10.448;2023-11-19T16:12:56;46.57;45.20;49.86;;
72736;Laerm;60856;53.238;10.448;2023-11-19T16:15:21;46.57;45.38;49.94;;
72736;Laerm;60856;53.238;10.448;2023-11-19T16:17:46;46.57;45.19;50.54;;
72736;Laerm;60856;53.238;10.448;2023-11-19T16:20:12;46.56;45.20;49.81;;
72736;Laerm;60856;53.238;10.448;2023-11-19T16:22:38;46.57;45.27;49.76;;
72736;Laerm;60856;53.238;10.448;2023-11-19T16:25:04;46.57;45.34;49.70;;
72736;Laerm;60856;53.238;10.448;2023-11-19T16:27:29;46.59;45.06;49.76;;
72736;Laerm;60856;53.238;10.448;2023-11-19T16:29:54;46.57;45.34;49.80;;
72736;Laerm;60856;53.238;10.448;2023-11-19T16:32:20;46.57;45.29;49.90;;
72736;Laerm;60856;53.238;10.448;2023-11-19T16:34:46;46.57;45.45;49.79;;
72736;Laerm;60856;53.238;10.448;2023-11-19T16:37:13;46.58;45.11;49.86;;
72736;Laerm;60856;53.238;10.448;2023-11-19T16:39:38;46.58;45.27;49.76;;
72736;Laerm;60856;53.238;10.448;2023-11-19T16:42:04;46.55;45.25;50.08;;
72736;Laerm;60856;53.238;10.448;2023-11-19T16:44:31;46.55;45.28;50.40;;
72736;Laerm;60856;53.238;10.448;2023-11-19T16:46:56;46.57;45.30;49.83;;
72736;Laerm;60856;53.238;10.448;2023-11-19T16:49:21;46.57;45.25;49.89;;
72736;Laerm;60856;53.238;10.448;2023-11-19T16:51:47;46.56;45.31;49.63;;
72736;Laerm;60856;53.238;10.448;2023-11-19T16:54:13;46.59;45.25;50.35;;
72736;Laerm;60856;53.238;10.448;2023-11-19T16:56:40;46.57;45.32;49.55;;
72736;Laerm;60856;53.238;10.448;2023-11-19T16:59:06;46.55;45.24;50.03;;
72736;Laerm;60856;53.238;10.448;2023-11-19T17:01:31;46.59;45.13;50.70;;
72736;Laerm;60856;53.238;10.448;2023-11-19T17:03:57;46.58;45.13;49.97;;
72736;Laerm;60856;53.238;10.448;2023-11-19T17:06:23;46.58;45.33;49.64;;
72736;Laerm;60856;53.238;10.448;2023-11-19T17:11:52;46.58;45.06;49.64;;
72736;Laerm;60856;53.238;10.448;2023-11-19T17:14:17;46.58;45.23;49.47;;
72736;Laerm;60856;53.238;10.448;2023-11-19T17:16:44;46.57;45.26;49.68;;
72736;Laerm;60856;53.238;10.448;2023-11-19T17:19:10;46.56;45.33;50.32;;
72736;Laerm;60856;53.238;10.448;2023-11-19T17:21:35;46.57;45.08;49.93;;
72736;Laerm;60856;53.238;10.448;2023-11-19T17:24:00;46.58;45.25;49.65;;
72736;Laerm;60856;53.238;10.448;2023-11-19T17:26:26;46.58;45.15;49.76;;
72736;Laerm;60856;53.238;10.448;2023-11-19T17:28:51;46.57;45.33;49.66;;
72736;Laerm;60856;53.238;10.448;2023-11-19T17:31:16;46.56;45.20;49.98;;
72736;Laerm;60856;53.238;10.448;2023-11-19T17:33:42;46.58;45.22;49.66;;
72736;Laerm;60856;53.238;10.448;2023-11-19T17:36:07;46.57;45.38;49.95;;
72736;Laerm;60856;53.238;10.448;2023-11-19T17:38:33;46.58;45.37;49.61;;
72736;Laerm;60856;53.238;10.448;2023-11-19T17:40:58;46.58;45.32;50.39;;
72736;Laerm;60856;53.238;10.448;2023-11-19T17:43:24;46.57;45.22;50.39;;
72736;Laerm;60856;53.238;10.448;2023-11-19T17:45:51;46.58;45.30;50.48;;
72736;Laerm;60856;53.238;10.448;2023-11-19T17:48:21;46.57;45.23;49.63;;
72736;Laerm;60856;53.238;10.448;2023-11-19T17:50:47;46.55;45.03;49.95;;
72736;Laerm;60856;53.238;10.448;2023-11-19T17:53:12;46.58;45.15;49.79;;
72736;Laerm;60856;53.238;10.448;2023-11-19T17:55:38;46.56;45.19;49.98;;
72736;Laerm;60856;53.238;10.448;2023-11-19T17:58:04;46.57;45.23;49.89;;
72736;Laerm;60856;53.238;10.448;2023-11-19T18:00:30;46.57;45.30;49.79;;
72736;Laerm;60856;53.238;10.448;2023-11-19T18:02:56;46.58;45.37;49.93;;
72736;Laerm;60856;53.238;10.448;2023-11-19T18:05:41;46.57;45.27;49.63;;
72736;Laerm;60856;53.238;10.448;2023-11-19T18:08:07;46.58;45.14;49.73;;
72736;Laerm;60856;53.238;10.448;2023-11-19T18:10:34;46.58;45.18;49.55;;
72736;Laerm;60856;53.238;10.448;2023-11-19T18:13:00;46.58;45.22;49.43;;
72736;Laerm;60856;53.238;10.448;2023-11-19T18:15:26;46.55;45.20;49.77;;
72736;Laerm;60856;53.238;10.448;2023-11-19T18:17:52;46.58;45.35;49.65;;
72736;Laerm;60856;53.238;10.448;2023-11-19T18:20:17;46.60;45.05;49.81;;
72736;Laerm;60856;53.238;10.448;2023-11-19T18:22:43;46.57;45.38;49.60;;
72736;Laerm;60856;53.238;10.448;2023-11-19T18:25:12;46.56;45.39;49.66;;
72736;Laerm;60856;53.238;10.448;2023-11-19T18:27:38;46.57;45.10;50.66;;
72736;Laerm;60856;53.238;10.448;2023-11-19T18:30:05;46.57;45.20;49.55;;
72736;Laerm;60856;53.238;10.448;2023-11-19T18:32:31;46.59;45.31;49.64;;
72736;Laerm;60856;53.238;10.448;2023-11-19T18:34:56;46.56;45.30;49.90;;
72736;Laerm;60856;53.238;10.448;2023-11-19T18:37:30;46.58;45.18;50.58;;
72736;Laerm;60856;53.238;10.448;2023-11-19T18:39:56;46.57;45.23;49.55;;
72736;Laerm;60856;53.238;10.448;2023-11-19T18:42:23;46.56;45.33;49.45;;
72736;Laerm;60856;53.238;10.448;2023-11-19T18:44:48;46.58;45.16;49.95;;
72736;Laerm;60856;53.238;10.448;2023-11-19T18:47:13;46.57;45.19;49.82;;
72736;Laerm;60856;53.238;10.448;2023-11-19T18:49:39;46.58;45.36;50.13;;
72736;Laerm;60856;53.238;10.448;2023-11-19T18:52:04;46.56;45.30;49.71;;
72736;Laerm;60856;53.238;10.448;2023-11-19T18:54:32;46.58;45.39;49.67;;
72736;Laerm;60856;53.238;10.448;2023-11-19T18:56:57;46.58;45.34;50.37;;
72736;Laerm;60856;53.238;10.448;2023-11-19T18:59:23;46.57;45.18;50.35;;
72736;Laerm;60856;53.238;10.448;2023-11-19T19:01:48;46.55;45.29;49.87;;
72736;Laerm;60856;53.238;10.448;2023-11-19T19:04:14;46.56;45.14;49.84;;
72736;Laerm;60856;53.238;10.448;2023-11-19T19:06:39;46.58;45.20;49.49;;
72736;Laerm;60856;53.238;10.448;2023-11-19T19:09:06;46.57;45.13;49.91;;
72736;Laerm;60856;53.238;10.448;2023-11-19T19:11:32;46.57;45.41;49.64;;
72736;Laerm;60856;53.238;10.448;2023-11-19T19:13:58;46.56;44.99;49.69;;
72736;Laerm;60856;53.238;10.448;2023-11-19T19:16:25;46.56;45.17;49.86;;
72736;Laerm;60856;53.238;10.448;2023-11-19T19:18:50;46.58;45.14;49.78;;
72736;Laerm;60856;53.238;10.448;2023-11-19T19:21:16;46.56;45.22;49.79;;
72736;Laerm;60856;53.238;10.448;2023-11-19T19:23:43;46.59;45.30;49.73;;
72736;Laerm;60856;53.238;10.448;2023-11-19T19:26:09;46.56;45.18;49.99;;
72736;Laerm;60856;53.238;10.448;2023-11-19T19:28:44;46.57;45.33;49.54;;
72736;Laerm;60856;53.238;10.448;2023-11-19T19:31:13;46.58;45.37;50.00;;
72736;Laerm;60856;53.238;10.448;2023-11-19T19:33:46;46.58;45.49;50.06;;
72736;Laerm;60856;53.238;10.448;2023-11-19T19:36:17;46.58;45.37;49.69;;
72736;Laerm;60856;53.238;10.448;2023-11-19T19:38:43;46.57;45.32;49.53;;
72736;Laerm;60856;53.238;10.448;2023-11-19T19:41:08;46.58;45.35;50.35;;
72736;Laerm;60856;53.238;10.448;2023-11-19T19:43:35;46.57;45.21;50.21;;
72736;Laerm;60856;53.238;10.448;2023-11-19T19:46:01;46.57;45.23;49.64;;
72736;Laerm;60856;53.238;10.448;2023-11-19T19:48:31;46.57;45.41;49.91;;
72736;Laerm;60856;53.238;10.448;2023-11-19T19:50:56;46.57;45.38;49.65;;
72736;Laerm;60856;53.238;10.448;2023-11-19T19:53:22;46.58;45.38;49.96;;
72736;Laerm;60856;53.238;10.448;2023-11-19T19:55:47;46.57;45.32;49.90;;
72736;Laerm;60856;53.238;10.448;2023-11-19T19:58:13;46.56;45.22;49.61;;
72736;Laerm;60856;53.238;10.448;2023-11-19T20:00:44;46.56;45.39;50.20;;
72736;Laerm;60856;53.238;10.448;2023-11-19T20:03:11;46.58;45.25;49.87;;
72736;Laerm;60856;53.238;10.448;2023-11-19T20:05:36;46.58;45.42;50.08;;
72736;Laerm;60856;53.238;10.448;2023-11-19T20:08:02;46.58;45.31;50.03;;
72736;Laerm;60856;53.238;10.448;2023-11-19T20:10:29;46.57;45.31;49.45;;
72736;Laerm;60856;53.238;10.448;2023-11-19T20:13:00;46.57;45.19;49.92;;
72736;Laerm;60856;53.238;10.448;2023-11-19T20:15:27;46.57;45.39;49.46;;
72736;Laerm;60856;53.238;10.448;2023-11-19T20:17:52;46.58;45.23;50.05;;
72736;Laerm;60856;53.238;10.448;2023-11-19T20:20:17;46.58;45.31;49.72;;
72736;Laerm;60856;53.238;10.448;2023-11-19T20:22:45;46.58;45.16;49.83;;
72736;Laerm;60856;53.238;10.448;2023-11-19T20:25:13;46.56;45.13;50.77;;
72736;Laerm;60856;53.238;10.448;2023-11-19T20:27:39;46.58;45.38;49.97;;
72736;Laerm;60856;53.238;10.448;2023-11-19T20:30:04;46.56;45.39;49.84;;
72736;Laerm;60856;53.238;10.448;2023-11-19T20:32:30;46.56;45.22;49.45;;
72736;Laerm;60856;53.238;10.448;2023-11-19T20:34:56;46.57;45.16;49.75;;
72736;Laerm;60856;53.238;10.448;2023-11-19T20:37:26;46.56;45.26;49.95;;
72736;Laerm;60856;53.238;10.448;2023-11-19T20:39:55;46.58;45.10;49.38;;
72736;Laerm;60856;53.238;10.448;2023-11-19T20:42:24;46.57;44.93;49.80;;
72736;Laerm;60856;53.238;10.448;2023-11-19T20:44:51;46.56;45.41;50.33;;
72736;Laerm;60856;53.238;10.448;2023-11-19T20:47:17;46.58;45.14;49.81;;
72736;Laerm;60856;53.238;10.448;2023-11-19T20:49:42;46.58;45.07;49.59;;
72736;Laerm;60856;53.238;10.448;2023-11-19T20:52:07;46.57;45.24;49.86;;
72736;Laerm;60856;53.238;10.448;2023-11-19T20:54:33;46.56;45.20;49.74;;